Flight Track Log - Related Links

Times and Time Zones

All times are in EDT time to prevent confusion due to time zone crossing. See the LBQ792 flight status page for this flight to view local times or setup timezone preferences in your user account.

Time Position Orientation Groundspeed Altitude Reporting Facility
EDT Latitude Longitude Course Direction KTS MPH feet Rate Location/Type
Wed 01:02:15 AM 39.8003 -78.9458 126° Southeast 255 293 15,100  Level Washington Center
Wed 01:03:15 AM 39.7528 -78.8600 126° Southeast 276 318 15,100 -50 Level Washington Center
Wed 01:04:15 AM 39.7111 -78.7825 125° Southeast 276 318 15,000 -50 Descending Washington Center
Wed 01:05:15 AM 39.6672 -78.7053 126° Southeast 276 318 15,000  Level Washington Center
Wed 01:06:14 AM 39.6233 -78.6306 127° Southeast 271 312 15,000 50 Level Washington Center
Wed 01:07:00 AM 40.1423 -79.5627 126° Southeast  Level FlightAware Approximate
Wed 01:07:15 AM 39.5814 -78.5561 126° Southeast 266 306 15,100  Level Washington Center
Wed 01:08:15 AM 39.5394 -78.4817 126° Southeast 260 299 14,400 -893 Descending Washington Center
Wed 01:09:16 AM 39.4956 -78.4044 126° Southeast 260 299 13,300 -1,100 Descending Washington Center
Wed 01:10:15 AM 39.4514 -78.3250 126° Southeast 260 299 12,200 -1,068 Descending Washington Center
Wed 01:11:14 AM 39.4200 -78.2378 115° Southeast 260 299 11,200 -1,100 Descending Washington Center
Wed 01:12:15 AM 39.3906 -78.1533 114° Southeast 260 299 10,000 -1,140 Descending Washington Center
Wed 01:13:15 AM 39.3611 -78.0664 114° Southeast 260 299 8,900 -1,091 Descending Washington Center
Wed 01:14:16 AM 39.3378 -77.9772 109° East 260 299 7,800 -1,109 Descending Washington Center
Wed 01:15:14 AM 39.3103 -77.8958 114° Southeast 250 288 6,700 -1,119 Descending Washington Center
Wed 01:16:14 AM 39.2764 -77.8169 119° Southeast 250 288 5,600 -905 Descending Washington Center
Wed 01:18:13 AM 39.2167 -77.6667 117° Southeast 241 277 4,000 -804 Descending Potomac TRACON
Wed 01:19:13 AM 39.1667 -77.6000 134° Southeast 235 270 3,200 -500 Descending Potomac TRACON
Wed 01:20:13 AM 39.1167 -77.5500 142° Southeast 225 259 3,000 -250 Descending Potomac TRACON
Wed 01:21:13 AM 39.0667 -77.5167 153° Southeast 217 250 2,700 -400 Descending Potomac TRACON
Wed 01:22:13 AM 39.0333 -77.4833 142° Southeast 196 226 2,200 -900 Descending Potomac TRACON
Wed 01:23:13 AM 38.9833 -77.4667 165° South 142 163 900 -1,300 Descending Potomac TRACON
Wed 01:25:00 AM 38.9474 -77.4599 90° East  Level Estimated
Wed 01:32:00 AM 38.9474 -77.4599 90° East  Level Estimated
Wed 01:33:00 AM 38.9474 -77.4599 90° East  Level Estimated
Wed 01:34:00 AM 38.9474 -77.4599 90° East  Level Estimated
Wed 01:35:00 AM 38.9474 -77.4599 90° East  Level Estimated

Login

Don't have an account? Register now (free) for customized features, flight alerts, and more!